This is the latest recevied weather packets stored in our database for station/object WD7OO. If no packets are shown the sender has not sent any weather packets the latest 10 day(s).
| Time | Temp. | Humidity | Pressure | Rain* | Wind** | Luminosity | Snow |
|---|---|---|---|---|---|---|---|
| 1788009291 | 20.56° C | 80% | 1022.7 hPa | 0 mm | - | 225 W/m² | - |
| 1788008986 | 20.56° C | 82% | 1022.7 hPa | 0 mm | - | 205 W/m² | - |
| 1788008682 | 20° C | 83% | 1022.6 hPa | 0 mm | - | 169 W/m² | - |
| 1788008380 | 19.44° C | 85% | 1022.5 hPa | 0 mm | - | 151 W/m² | - |
| 1788008077 | 18.33° C | 91% | 1022.7 hPa | 0 mm | - | 184 W/m² | - |
| 1788007776 | 17.22° C | 95% | 1022.3 hPa | 0 mm | - | 93 W/m² | - |
| 1788007471 | 17.22° C | 96% | 1022.5 hPa | 0 mm | - | 59 W/m² | - |
| 1788007170 | 16.67° C | 97% | 1022.4 hPa | 0 mm | - | 49 W/m² | - |
| 1788006870 | 16.67° C | 99% | 1022.4 hPa | 0 mm | - | 46 W/m² | - |
| 1788006564 | 16.11° C | 99% | 1022.6 hPa | 0 mm | - | 43 W/m² | - |
| 1788006259 | 16.11° C | 99% | 1022.5 hPa | 0 mm | - | 38 W/m² | - |
| 1788005958 | 15.56° C | 99% | 1022.4 hPa | 0 mm | - | 38 W/m² | - |
| 1788005653 | 15.56° C | 99% | 1022.7 hPa | 0 mm | - | 39 W/m² | - |
| 1788005347 | 15.56° C | 99% | 1022.6 hPa | 0 mm | - | 42 W/m² | - |
| 1788005046 | 15° C | 99% | 1022.6 hPa | 0 mm | - | 43 W/m² | - |
| 1788004745 | 15° C | 99% | 1022.4 hPa | 0 mm | - | 39 W/m² | - |
| 1788004440 | 15° C | 99% | 1022.4 hPa | 0 mm | - | 32 W/m² | - |
| 1788004139 | 15° C | 99% | 1022.3 hPa | 0 mm | - | 30 W/m² | - |
| 1788003838 | 15° C | 99% | 1022.4 hPa | 0 mm | - | 26 W/m² | - |
| 1788003533 | 14.44° C | 99% | 1022.4 hPa | 0 mm | - | 22 W/m² | - |
| 1788003233 | 14.44° C | 99% | 1022.4 hPa | 0 mm | - | 14 W/m² | - |
| 1788002932 | 14.44° C | 99% | 1022.5 hPa | 0 mm | - | 10 W/m² | - |
| 1788002628 | 14.44° C | 99% | 1022.6 hPa | 0 mm | - | 6 W/m² | - |
| 1788002323 | 14.44° C | 99% | 1022.6 hPa | 0 mm | - | 5 W/m² | - |
| 1788002018 | 14.44° C | 99% | 1022.6 hPa | 0 mm | - | 3 W/m² | - |
* Rain latest hour (hover to see other rain measurements)
** Current wind speed in m/s (hover to see current wind gust speed)